sensor_id;sensor_type;location;lat;lon;timestamp;P1;durP1;ratioP1;P2;durP2;ratioP2
59263;SDS011;45030;42.720;23.344;2023-08-01T00:00:50;4.18;;;1.63;;
59263;SDS011;45030;42.720;23.344;2023-08-01T00:03:16;2.92;;;1.63;;
59263;SDS011;45030;42.720;23.344;2023-08-01T00:05:41;3.15;;;1.75;;
59263;SDS011;45030;42.720;23.344;2023-08-01T00:08:10;3.03;;;1.52;;
59263;SDS011;45030;42.720;23.344;2023-08-01T00:10:37;2.65;;;1.80;;
59263;SDS011;45030;42.720;23.344;2023-08-01T00:13:02;3.28;;;1.73;;
59263;SDS011;45030;42.720;23.344;2023-08-01T00:15:27;1.90;;;1.40;;
59263;SDS011;45030;42.720;23.344;2023-08-01T00:17:52;3.13;;;2.42;;
59263;SDS011;45030;42.720;23.344;2023-08-01T00:20:18;2.70;;;1.50;;
59263;SDS011;45030;42.720;23.344;2023-08-01T00:22:43;2.38;;;1.63;;
59263;SDS011;45030;42.720;23.344;2023-08-01T00:25:09;1.92;;;1.40;;
59263;SDS011;45030;42.720;23.344;2023-08-01T00:27:34;2.20;;;1.50;;
59263;SDS011;45030;42.720;23.344;2023-08-01T00:29:59;3.27;;;1.80;;
59263;SDS011;45030;42.720;23.344;2023-08-01T00:32:25;2.67;;;1.65;;
59263;SDS011;45030;42.720;23.344;2023-08-01T00:34:50;2.00;;;1.53;;
59263;SDS011;45030;42.720;23.344;2023-08-01T00:37:16;2.20;;;1.50;;
59263;SDS011;45030;42.720;23.344;2023-08-01T00:39:41;2.55;;;1.45;;
59263;SDS011;45030;42.720;23.344;2023-08-01T00:42:07;2.92;;;1.75;;
59263;SDS011;45030;42.720;23.344;2023-08-01T00:44:32;4.00;;;2.10;;
59263;SDS011;45030;42.720;23.344;2023-08-01T00:46:57;3.00;;;2.00;;
59263;SDS011;45030;42.720;23.344;2023-08-01T00:49:22;4.72;;;1.88;;
59263;SDS011;45030;42.720;23.344;2023-08-01T00:51:48;2.63;;;1.80;;
59263;SDS011;45030;42.720;23.344;2023-08-01T00:54:13;2.72;;;1.70;;
59263;SDS011;45030;42.720;23.344;2023-08-01T00:56:39;3.63;;;1.90;;
59263;SDS011;45030;42.720;23.344;2023-08-01T00:59:04;2.85;;;1.85;;
59263;SDS011;45030;42.720;23.344;2023-08-01T01:01:30;4.38;;;1.83;;
59263;SDS011;45030;42.720;23.344;2023-08-01T01:03:55;2.97;;;1.70;;
59263;SDS011;45030;42.720;23.344;2023-08-01T01:08:47;2.85;;;2.00;;
59263;SDS011;45030;42.720;23.344;2023-08-01T01:11:12;4.28;;;2.10;;
59263;SDS011;45030;42.720;23.344;2023-08-01T01:13:37;3.80;;;1.87;;
59263;SDS011;45030;42.720;23.344;2023-08-01T01:16:03;2.88;;;1.88;;
59263;SDS011;45030;42.720;23.344;2023-08-01T01:18:28;3.50;;;2.28;;
59263;SDS011;45030;42.720;23.344;2023-08-01T01:20:53;3.38;;;2.22;;
59263;SDS011;45030;42.720;23.344;2023-08-01T01:23:18;3.05;;;2.20;;
59263;SDS011;45030;42.720;23.344;2023-08-01T01:25:44;3.85;;;2.58;;
59263;SDS011;45030;42.720;23.344;2023-08-01T01:28:10;3.30;;;2.20;;
59263;SDS011;45030;42.720;23.344;2023-08-01T01:30:36;2.65;;;2.30;;
59263;SDS011;45030;42.720;23.344;2023-08-01T01:33:01;3.90;;;2.10;;
59263;SDS011;45030;42.720;23.344;2023-08-01T01:35:27;3.90;;;2.50;;
59263;SDS011;45030;42.720;23.344;2023-08-01T01:37:52;2.88;;;2.10;;
59263;SDS011;45030;42.720;23.344;2023-08-01T01:40:17;5.03;;;2.17;;
59263;SDS011;45030;42.720;23.344;2023-08-01T01:42:42;3.80;;;2.45;;
59263;SDS011;45030;42.720;23.344;2023-08-01T01:45:08;3.03;;;1.92;;
59263;SDS011;45030;42.720;23.344;2023-08-01T01:47:33;4.25;;;2.50;;
59263;SDS011;45030;42.720;23.344;2023-08-01T01:49:58;3.70;;;2.30;;
59263;SDS011;45030;42.720;23.344;2023-08-01T01:52:24;5.65;;;2.20;;
59263;SDS011;45030;42.720;23.344;2023-08-01T01:54:49;4.70;;;1.98;;
59263;SDS011;45030;42.720;23.344;2023-08-01T01:57:14;2.42;;;2.00;;
59263;SDS011;45030;42.720;23.344;2023-08-01T01:59:39;3.75;;;2.42;;
59263;SDS011;45030;42.720;23.344;2023-08-01T02:02:05;3.55;;;2.38;;
59263;SDS011;45030;42.720;23.344;2023-08-01T02:04:30;3.63;;;2.08;;
59263;SDS011;45030;42.720;23.344;2023-08-01T02:06:55;5.20;;;2.63;;
59263;SDS011;45030;42.720;23.344;2023-08-01T02:09:21;5.65;;;2.45;;
59263;SDS011;45030;42.720;23.344;2023-08-01T02:11:46;3.63;;;2.25;;
59263;SDS011;45030;42.720;23.344;2023-08-01T02:14:11;4.10;;;2.78;;
59263;SDS011;45030;42.720;23.344;2023-08-01T02:16:37;3.03;;;2.10;;
59263;SDS011;45030;42.720;23.344;2023-08-01T02:19:03;4.60;;;2.47;;
59263;SDS011;45030;42.720;23.344;2023-08-01T02:21:28;3.58;;;2.30;;
59263;SDS011;45030;42.720;23.344;2023-08-01T02:23:53;4.55;;;2.33;;
59263;SDS011;45030;42.720;23.344;2023-08-01T02:26:18;3.13;;;1.95;;
59263;SDS011;45030;42.720;23.344;2023-08-01T02:28:44;3.25;;;1.92;;
59263;SDS011;45030;42.720;23.344;2023-08-01T02:31:09;7.65;;;2.47;;
59263;SDS011;45030;42.720;23.344;2023-08-01T02:33:34;3.42;;;2.03;;
59263;SDS011;45030;42.720;23.344;2023-08-01T02:35:59;3.83;;;2.20;;
59263;SDS011;45030;42.720;23.344;2023-08-01T02:38:25;5.03;;;2.70;;
59263;SDS011;45030;42.720;23.344;2023-08-01T02:40:50;4.37;;;2.77;;
59263;SDS011;45030;42.720;23.344;2023-08-01T02:43:15;2.67;;;2.28;;
59263;SDS011;45030;42.720;23.344;2023-08-01T02:45:43;3.13;;;2.10;;
59263;SDS011;45030;42.720;23.344;2023-08-01T02:48:09;3.08;;;2.00;;
59263;SDS011;45030;42.720;23.344;2023-08-01T02:50:34;5.07;;;2.85;;
59263;SDS011;45030;42.720;23.344;2023-08-01T02:52:59;3.95;;;2.58;;
59263;SDS011;45030;42.720;23.344;2023-08-01T02:55:25;4.40;;;3.10;;
59263;SDS011;45030;42.720;23.344;2023-08-01T02:57:50;5.15;;;3.42;;
59263;SDS011;45030;42.720;23.344;2023-08-01T03:00:15;5.30;;;2.97;;
59263;SDS011;45030;42.720;23.344;2023-08-01T03:02:42;4.45;;;2.60;;
59263;SDS011;45030;42.720;23.344;2023-08-01T03:05:08;5.57;;;3.25;;
59263;SDS011;45030;42.720;23.344;2023-08-01T03:07:33;4.30;;;2.67;;
59263;SDS011;45030;42.720;23.344;2023-08-01T03:09:59;3.10;;;2.28;;
59263;SDS011;45030;42.720;23.344;2023-08-01T03:12:24;4.93;;;2.70;;
59263;SDS011;45030;42.720;23.344;2023-08-01T03:14:49;5.22;;;3.00;;
59263;SDS011;45030;42.720;23.344;2023-08-01T03:17:14;5.45;;;3.30;;
59263;SDS011;45030;42.720;23.344;2023-08-01T03:19:40;11.13;;;7.70;;
59263;SDS011;45030;42.720;23.344;2023-08-01T03:22:05;8.27;;;6.87;;
59263;SDS011;45030;42.720;23.344;2023-08-01T03:24:32;5.85;;;4.07;;
59263;SDS011;45030;42.720;23.344;2023-08-01T03:26:57;6.97;;;5.00;;
59263;SDS011;45030;42.720;23.344;2023-08-01T03:29:23;6.90;;;3.77;;
59263;SDS011;45030;42.720;23.344;2023-08-01T03:31:48;7.53;;;4.50;;
59263;SDS011;45030;42.720;23.344;2023-08-01T03:34:13;5.68;;;3.53;;
59263;SDS011;45030;42.720;23.344;2023-08-01T03:36:38;6.43;;;3.90;;
59263;SDS011;45030;42.720;23.344;2023-08-01T03:39:03;6.57;;;4.50;;
59263;SDS011;45030;42.720;23.344;2023-08-01T03:41:29;8.48;;;4.03;;
59263;SDS011;45030;42.720;23.344;2023-08-01T03:43:54;7.07;;;4.07;;
59263;SDS011;45030;42.720;23.344;2023-08-01T03:46:19;4.53;;;3.25;;
59263;SDS011;45030;42.720;23.344;2023-08-01T03:48:45;6.50;;;4.00;;
59263;SDS011;45030;42.720;23.344;2023-08-01T03:51:10;6.57;;;3.65;;
59263;SDS011;45030;42.720;23.344;2023-08-01T03:53:35;7.38;;;3.15;;
59263;SDS011;45030;42.720;23.344;2023-08-01T03:56:01;6.40;;;3.65;;
59263;SDS011;45030;42.720;23.344;2023-08-01T03:58:26;5.95;;;4.50;;
59263;SDS011;45030;42.720;23.344;2023-08-01T04:00:52;6.00;;;4.38;;
59263;SDS011;45030;42.720;23.344;2023-08-01T04:03:17;5.37;;;4.33;;
59263;SDS011;45030;42.720;23.344;2023-08-01T04:05:42;7.70;;;4.70;;
59263;SDS011;45030;42.720;23.344;2023-08-01T04:08:08;6.70;;;4.35;;
59263;SDS011;45030;42.720;23.344;2023-08-01T04:10:33;7.10;;;3.58;;
59263;SDS011;45030;42.720;23.344;2023-08-01T04:12:58;7.70;;;3.73;;
59263;SDS011;45030;42.720;23.344;2023-08-01T04:15:23;5.93;;;3.37;;
59263;SDS011;45030;42.720;23.344;2023-08-01T04:17:48;5.32;;;3.30;;
59263;SDS011;45030;42.720;23.344;2023-08-01T04:20:14;7.18;;;4.03;;
59263;SDS011;45030;42.720;23.344;2023-08-01T04:22:39;5.80;;;3.72;;
59263;SDS011;45030;42.720;23.344;2023-08-01T04:25:04;6.25;;;4.05;;
59263;SDS011;45030;42.720;23.344;2023-08-01T04:27:30;4.70;;;3.22;;
59263;SDS011;45030;42.720;23.344;2023-08-01T04:29:55;6.70;;;3.88;;
59263;SDS011;45030;42.720;23.344;2023-08-01T04:32:20;7.10;;;3.90;;
59263;SDS011;45030;42.720;23.344;2023-08-01T04:34:45;7.60;;;3.60;;
59263;SDS011;45030;42.720;23.344;2023-08-01T04:37:11;5.97;;;3.53;;
59263;SDS011;45030;42.720;23.344;2023-08-01T04:39:36;5.97;;;3.63;;
59263;SDS011;45030;42.720;23.344;2023-08-01T04:42:01;4.80;;;3.72;;
59263;SDS011;45030;42.720;23.344;2023-08-01T04:44:27;5.55;;;3.53;;
59263;SDS011;45030;42.720;23.344;2023-08-01T04:46:52;5.28;;;3.55;;
59263;SDS011;45030;42.720;23.344;2023-08-01T04:49:17;6.33;;;2.70;;
59263;SDS011;45030;42.720;23.344;2023-08-01T04:51:44;3.75;;;3.05;;
59263;SDS011;45030;42.720;23.344;2023-08-01T04:54:09;5.75;;;3.25;;
59263;SDS011;45030;42.720;23.344;2023-08-01T04:56:34;4.73;;;2.77;;
59263;SDS011;45030;42.720;23.344;2023-08-01T04:58:59;4.57;;;2.60;;
59263;SDS011;45030;42.720;23.344;2023-08-01T05:01:26;4.45;;;2.33;;
59263;SDS011;45030;42.720;23.344;2023-08-01T05:03:52;3.50;;;2.40;;
59263;SDS011;45030;42.720;23.344;2023-08-01T05:06:17;4.35;;;3.03;;
59263;SDS011;45030;42.720;23.344;2023-08-01T05:08:42;3.53;;;2.67;;
59263;SDS011;45030;42.720;23.344;2023-08-01T05:11:07;5.22;;;3.15;;
59263;SDS011;45030;42.720;23.344;2023-08-01T05:13:33;4.28;;;3.00;;
59263;SDS011;45030;42.720;23.344;2023-08-01T05:15:58;4.90;;;3.03;;
59263;SDS011;45030;42.720;23.344;2023-08-01T05:18:23;4.30;;;2.88;;
59263;SDS011;45030;42.720;23.344;2023-08-01T05:20:48;6.55;;;3.30;;
59263;SDS011;45030;42.720;23.344;2023-08-01T05:23:14;4.57;;;2.85;;
59263;SDS011;45030;42.720;23.344;2023-08-01T05:25:39;4.07;;;2.30;;
59263;SDS011;45030;42.720;23.344;2023-08-01T05:28:04;3.70;;;2.65;;
59263;SDS011;45030;42.720;23.344;2023-08-01T05:30:29;3.35;;;2.17;;
59263;SDS011;45030;42.720;23.344;2023-08-01T05:32:55;5.68;;;3.83;;
59263;SDS011;45030;42.720;23.344;2023-08-01T05:35:20;4.93;;;2.60;;
59263;SDS011;45030;42.720;23.344;2023-08-01T05:37:46;5.65;;;2.53;;
59263;SDS011;45030;42.720;23.344;2023-08-01T05:40:11;4.63;;;3.27;;
59263;SDS011;45030;42.720;23.344;2023-08-01T05:42:36;7.53;;;2.85;;
59263;SDS011;45030;42.720;23.344;2023-08-01T05:45:02;5.75;;;3.78;;
59263;SDS011;45030;42.720;23.344;2023-08-01T05:47:29;4.05;;;2.92;;
59263;SDS011;45030;42.720;23.344;2023-08-01T05:49:54;4.15;;;2.90;;
59263;SDS011;45030;42.720;23.344;2023-08-01T05:52:19;6.63;;;2.45;;
59263;SDS011;45030;42.720;23.344;2023-08-01T05:54:44;6.20;;;3.30;;
59263;SDS011;45030;42.720;23.344;2023-08-01T05:57:10;5.70;;;3.10;;
59263;SDS011;45030;42.720;23.344;2023-08-01T05:59:35;4.30;;;2.73;;
59263;SDS011;45030;42.720;23.344;2023-08-01T06:02:00;4.40;;;2.77;;
59263;SDS011;45030;42.720;23.344;2023-08-01T06:04:25;2.80;;;2.17;;
59263;SDS011;45030;42.720;23.344;2023-08-01T06:06:50;5.07;;;3.88;;
59263;SDS011;45030;42.720;23.344;2023-08-01T06:09:16;5.43;;;3.10;;
59263;SDS011;45030;42.720;23.344;2023-08-01T06:11:41;5.78;;;2.92;;
59263;SDS011;45030;42.720;23.344;2023-08-01T06:14:06;4.78;;;3.08;;
59263;SDS011;45030;42.720;23.344;2023-08-01T06:16:32;9.13;;;4.22;;
59263;SDS011;45030;42.720;23.344;2023-08-01T06:18:57;4.53;;;2.75;;
59263;SDS011;45030;42.720;23.344;2023-08-01T06:21:23;5.50;;;3.03;;
59263;SDS011;45030;42.720;23.344;2023-08-01T06:23:48;7.00;;;3.03;;
59263;SDS011;45030;42.720;23.344;2023-08-01T06:26:13;7.07;;;2.87;;
59263;SDS011;45030;42.720;23.344;2023-08-01T06:28:40;5.00;;;2.42;;
59263;SDS011;45030;42.720;23.344;2023-08-01T06:31:05;5.88;;;2.55;;
59263;SDS011;45030;42.720;23.344;2023-08-01T06:33:30;4.63;;;2.20;;
59263;SDS011;45030;42.720;23.344;2023-08-01T06:35:56;5.27;;;2.33;;
59263;SDS011;45030;42.720;23.344;2023-08-01T06:38:21;6.35;;;2.47;;
59263;SDS011;45030;42.720;23.344;2023-08-01T06:40:46;4.00;;;2.47;;
59263;SDS011;45030;42.720;23.344;2023-08-01T06:43:11;4.37;;;2.20;;
59263;SDS011;45030;42.720;23.344;2023-08-01T06:45:37;4.73;;;2.60;;
59263;SDS011;45030;42.720;23.344;2023-08-01T06:48:02;5.85;;;2.38;;
59263;SDS011;45030;42.720;23.344;2023-08-01T06:50:28;5.93;;;2.30;;
59263;SDS011;45030;42.720;23.344;2023-08-01T06:52:53;3.83;;;2.10;;
59263;SDS011;45030;42.720;23.344;2023-08-01T06:55:18;3.50;;;2.47;;
59263;SDS011;45030;42.720;23.344;2023-08-01T06:57:43;6.53;;;2.53;;
59263;SDS011;45030;42.720;23.344;2023-08-01T07:00:09;3.97;;;2.57;;
59263;SDS011;45030;42.720;23.344;2023-08-01T07:02:34;5.60;;;2.25;;
59263;SDS011;45030;42.720;23.344;2023-08-01T07:04:59;6.50;;;2.37;;
59263;SDS011;45030;42.720;23.344;2023-08-01T07:07:24;6.77;;;2.30;;
59263;SDS011;45030;42.720;23.344;2023-08-01T07:09:50;5.43;;;2.80;;
59263;SDS011;45030;42.720;23.344;2023-08-01T07:12:15;3.95;;;2.67;;
59263;SDS011;45030;42.720;23.344;2023-08-01T07:14:40;3.08;;;2.10;;
59263;SDS011;45030;42.720;23.344;2023-08-01T07:17:05;4.55;;;2.40;;
59263;SDS011;45030;42.720;23.344;2023-08-01T07:19:31;3.17;;;1.80;;
59263;SDS011;45030;42.720;23.344;2023-08-01T07:21:57;4.45;;;2.30;;
59263;SDS011;45030;42.720;23.344;2023-08-01T07:24:22;3.57;;;2.07;;
59263;SDS011;45030;42.720;23.344;2023-08-01T07:26:47;2.90;;;2.30;;
59263;SDS011;45030;42.720;23.344;2023-08-01T07:29:13;4.10;;;1.73;;
59263;SDS011;45030;42.720;23.344;2023-08-01T07:31:40;3.90;;;1.98;;
59263;SDS011;45030;42.720;23.344;2023-08-01T07:34:06;4.72;;;1.95;;
59263;SDS011;45030;42.720;23.344;2023-08-01T07:36:31;2.77;;;1.67;;
59263;SDS011;45030;42.720;23.344;2023-08-01T07:38:56;2.92;;;1.70;;
59263;SDS011;45030;42.720;23.344;2023-08-01T07:41:21;3.75;;;1.50;;
59263;SDS011;45030;42.720;23.344;2023-08-01T07:43:47;6.55;;;2.28;;
59263;SDS011;45030;42.720;23.344;2023-08-01T07:46:13;3.78;;;1.60;;
59263;SDS011;45030;42.720;23.344;2023-08-01T07:48:38;3.38;;;1.65;;
59263;SDS011;45030;42.720;23.344;2023-08-01T07:51:04;2.83;;;1.80;;
59263;SDS011;45030;42.720;23.344;2023-08-01T07:53:30;2.60;;;1.60;;
59263;SDS011;45030;42.720;23.344;2023-08-01T07:55:55;3.43;;;1.60;;
59263;SDS011;45030;42.720;23.344;2023-08-01T07:58:21;4.23;;;1.50;;
59263;SDS011;45030;42.720;23.344;2023-08-01T08:00:46;3.60;;;1.83;;
59263;SDS011;45030;42.720;23.344;2023-08-01T08:03:11;2.50;;;1.50;;
59263;SDS011;45030;42.720;23.344;2023-08-01T08:05:36;5.38;;;2.17;;
59263;SDS011;45030;42.720;23.344;2023-08-01T08:08:03;4.22;;;1.70;;
59263;SDS011;45030;42.720;23.344;2023-08-01T08:10:29;2.90;;;1.98;;
59263;SDS011;45030;42.720;23.344;2023-08-01T08:12:54;4.70;;;2.37;;
59263;SDS011;45030;42.720;23.344;2023-08-01T08:15:19;3.70;;;1.93;;
59263;SDS011;45030;42.720;23.344;2023-08-01T08:17:45;4.72;;;1.80;;
59263;SDS011;45030;42.720;23.344;2023-08-01T08:20:10;2.77;;;1.80;;
59263;SDS011;45030;42.720;23.344;2023-08-01T08:22:35;3.30;;;1.65;;
59263;SDS011;45030;42.720;23.344;2023-08-01T08:25:01;5.07;;;1.77;;
59263;SDS011;45030;42.720;23.344;2023-08-01T08:27:26;3.60;;;1.70;;
59263;SDS011;45030;42.720;23.344;2023-08-01T08:29:51;3.42;;;1.70;;
59263;SDS011;45030;42.720;23.344;2023-08-01T08:32:16;3.13;;;1.87;;
59263;SDS011;45030;42.720;23.344;2023-08-01T08:34:42;5.40;;;2.37;;
59263;SDS011;45030;42.720;23.344;2023-08-01T08:37:07;3.17;;;1.95;;
59263;SDS011;45030;42.720;23.344;2023-08-01T08:39:32;2.67;;;1.90;;
59263;SDS011;45030;42.720;23.344;2023-08-01T08:41:57;3.13;;;1.70;;
59263;SDS011;45030;42.720;23.344;2023-08-01T08:44:24;3.38;;;2.00;;
59263;SDS011;45030;42.720;23.344;2023-08-01T08:46:53;2.80;;;1.90;;
59263;SDS011;45030;42.720;23.344;2023-08-01T08:49:21;5.57;;;1.92;;
59263;SDS011;45030;42.720;23.344;2023-08-01T08:51:47;2.35;;;1.45;;
59263;SDS011;45030;42.720;23.344;2023-08-01T08:54:13;2.22;;;1.50;;
59263;SDS011;45030;42.720;23.344;2023-08-01T08:56:39;3.20;;;1.90;;
59263;SDS011;45030;42.720;23.344;2023-08-01T08:59:06;1.85;;;1.42;;
59263;SDS011;45030;42.720;23.344;2023-08-01T09:01:32;5.50;;;1.83;;
59263;SDS011;45030;42.720;23.344;2023-08-01T09:03:57;4.15;;;1.60;;
59263;SDS011;45030;42.720;23.344;2023-08-01T09:06:34;4.78;;;1.73;;
59263;SDS011;45030;42.720;23.344;2023-08-01T09:09:06;2.97;;;1.50;;
59263;SDS011;45030;42.720;23.344;2023-08-01T09:11:47;3.85;;;1.58;;
59263;SDS011;45030;42.720;23.344;2023-08-01T09:14:14;2.25;;;1.52;;
59263;SDS011;45030;42.720;23.344;2023-08-01T09:16:40;2.63;;;1.80;;
59263;SDS011;45030;42.720;23.344;2023-08-01T09:19:05;2.83;;;1.80;;
59263;SDS011;45030;42.720;23.344;2023-08-01T09:21:31;4.93;;;1.80;;
59263;SDS011;45030;42.720;23.344;2023-08-01T09:24:09;2.80;;;1.50;;
59263;SDS011;45030;42.720;23.344;2023-08-01T09:26:35;4.00;;;2.03;;
59263;SDS011;45030;42.720;23.344;2023-08-01T09:29:01;3.20;;;1.80;;
59263;SDS011;45030;42.720;23.344;2023-08-01T09:31:27;3.78;;;1.80;;
59263;SDS011;45030;42.720;23.344;2023-08-01T09:33:53;3.30;;;1.70;;
59263;SDS011;45030;42.720;23.344;2023-08-01T09:36:21;3.83;;;1.80;;
59263;SDS011;45030;42.720;23.344;2023-08-01T09:38:47;2.20;;;1.90;;
59263;SDS011;45030;42.720;23.344;2023-08-01T09:41:18;3.40;;;1.50;;
59263;SDS011;45030;42.720;23.344;2023-08-01T09:43:44;2.40;;;1.50;;
59263;SDS011;45030;42.720;23.344;2023-08-01T09:46:11;2.45;;;1.50;;
59263;SDS011;45030;42.720;23.344;2023-08-01T09:48:36;2.95;;;1.50;;
59263;SDS011;45030;42.720;23.344;2023-08-01T09:53:31;2.83;;;1.42;;
59263;SDS011;45030;42.720;23.344;2023-08-01T09:55:56;2.80;;;1.55;;
59263;SDS011;45030;42.720;23.344;2023-08-01T09:58:22;3.55;;;1.95;;
59263;SDS011;45030;42.720;23.344;2023-08-01T10:00:48;4.32;;;2.28;;
59263;SDS011;45030;42.720;23.344;2023-08-01T10:03:15;2.40;;;1.50;;
59263;SDS011;45030;42.720;23.344;2023-08-01T10:05:41;3.60;;;2.40;;
59263;SDS011;45030;42.720;23.344;2023-08-01T10:08:06;2.60;;;2.00;;
59263;SDS011;45030;42.720;23.344;2023-08-01T10:10:32;2.25;;;1.65;;
59263;SDS011;45030;42.720;23.344;2023-08-01T10:12:58;2.92;;;1.63;;
59263;SDS011;45030;42.720;23.344;2023-08-01T10:15:25;4.93;;;1.85;;
59263;SDS011;45030;42.720;23.344;2023-08-01T10:17:50;3.83;;;1.70;;
59263;SDS011;45030;42.720;23.344;2023-08-01T10:20:16;3.60;;;1.60;;
59263;SDS011;45030;42.720;23.344;2023-08-01T10:22:41;2.25;;;1.65;;
59263;SDS011;45030;42.720;23.344;2023-08-01T10:25:08;4.63;;;1.70;;
59263;SDS011;45030;42.720;23.344;2023-08-01T10:27:34;6.13;;;2.40;;
59263;SDS011;45030;42.720;23.344;2023-08-01T10:30:01;3.55;;;1.85;;
59263;SDS011;45030;42.720;23.344;2023-08-01T10:32:34;2.65;;;1.70;;
59263;SDS011;45030;42.720;23.344;2023-08-01T10:34:59;2.25;;;1.67;;
59263;SDS011;45030;42.720;23.344;2023-08-01T10:37:25;3.75;;;2.72;;
59263;SDS011;45030;42.720;23.344;2023-08-01T10:39:57;2.38;;;1.63;;
59263;SDS011;45030;42.720;23.344;2023-08-01T10:42:22;3.15;;;1.60;;
59263;SDS011;45030;42.720;23.344;2023-08-01T10:44:48;3.55;;;1.88;;
59263;SDS011;45030;42.720;23.344;2023-08-01T10:47:13;2.70;;;1.70;;
59263;SDS011;45030;42.720;23.344;2023-08-01T10:49:39;2.22;;;1.38;;
59263;SDS011;45030;42.720;23.344;2023-08-01T10:52:23;2.13;;;1.50;;
59263;SDS011;45030;42.720;23.344;2023-08-01T10:55:01;2.95;;;1.85;;
59263;SDS011;45030;42.720;23.344;2023-08-01T10:57:27;4.20;;;1.60;;
59263;SDS011;45030;42.720;23.344;2023-08-01T10:59:53;2.80;;;1.85;;
59263;SDS011;45030;42.720;23.344;2023-08-01T11:02:20;2.78;;;1.63;;
59263;SDS011;45030;42.720;23.344;2023-08-01T11:04:54;2.63;;;1.83;;
59263;SDS011;45030;42.720;23.344;2023-08-01T11:07:19;3.42;;;1.70;;
59263;SDS011;45030;42.720;23.344;2023-08-01T11:09:45;4.17;;;1.60;;
59263;SDS011;45030;42.720;23.344;2023-08-01T11:12:10;3.40;;;1.80;;
59263;SDS011;45030;42.720;23.344;2023-08-01T11:14:35;2.65;;;1.73;;
59263;SDS011;45030;42.720;23.344;2023-08-01T11:17:00;3.73;;;1.80;;
59263;SDS011;45030;42.720;23.344;2023-08-01T11:19:27;4.05;;;1.80;;
59263;SDS011;45030;42.720;23.344;2023-08-01T11:21:53;2.95;;;2.00;;
59263;SDS011;45030;42.720;23.344;2023-08-01T11:24:19;5.28;;;2.15;;
59263;SDS011;45030;42.720;23.344;2023-08-01T11:26:46;3.10;;;1.75;;
59263;SDS011;45030;42.720;23.344;2023-08-01T11:29:12;1.92;;;1.40;;
59263;SDS011;45030;42.720;23.344;2023-08-01T11:31:37;3.08;;;1.52;;
59263;SDS011;45030;42.720;23.344;2023-08-01T11:34:03;2.65;;;1.83;;
59263;SDS011;45030;42.720;23.344;2023-08-01T11:36:28;3.30;;;1.60;;
59263;SDS011;45030;42.720;23.344;2023-08-01T11:38:54;2.65;;;1.77;;
59263;SDS011;45030;42.720;23.344;2023-08-01T11:41:20;3.03;;;1.63;;
59263;SDS011;45030;42.720;23.344;2023-08-01T11:43:45;3.30;;;1.60;;
59263;SDS011;45030;42.720;23.344;2023-08-01T11:46:10;2.30;;;1.60;;
59263;SDS011;45030;42.720;23.344;2023-08-01T11:48:36;2.65;;;1.55;;
59263;SDS011;45030;42.720;23.344;2023-08-01T11:51:01;3.30;;;1.80;;
59263;SDS011;45030;42.720;23.344;2023-08-01T11:53:27;6.68;;;1.45;;
59263;SDS011;45030;42.720;23.344;2023-08-01T11:55:53;2.72;;;1.60;;
59263;SDS011;45030;42.720;23.344;2023-08-01T11:58:30;4.33;;;1.60;;
59263;SDS011;45030;42.720;23.344;2023-08-01T12:01:09;5.32;;;2.10;;
59263;SDS011;45030;42.720;23.344;2023-08-01T12:03:50;4.60;;;1.90;;
59263;SDS011;45030;42.720;23.344;2023-08-01T12:06:16;3.85;;;1.65;;
59263;SDS011;45030;42.720;23.344;2023-08-01T12:08:41;8.32;;;1.90;;
59263;SDS011;45030;42.720;23.344;2023-08-01T12:11:40;2.92;;;1.73;;
59263;SDS011;45030;42.720;23.344;2023-08-01T12:16:36;3.28;;;1.42;;
59263;SDS011;45030;42.720;23.344;2023-08-01T12:19:02;3.22;;;1.75;;
59263;SDS011;45030;42.720;23.344;2023-08-01T12:21:28;3.38;;;1.55;;
59263;SDS011;45030;42.720;23.344;2023-08-01T12:23:53;2.58;;;1.45;;
59263;SDS011;45030;42.720;23.344;2023-08-01T12:26:18;1.50;;;1.30;;
59263;SDS011;45030;42.720;23.344;2023-08-01T12:28:43;2.57;;;1.57;;
59263;SDS011;45030;42.720;23.344;2023-08-01T12:31:09;3.03;;;1.60;;
59263;SDS011;45030;42.720;23.344;2023-08-01T12:33:34;3.53;;;1.37;;
59263;SDS011;45030;42.720;23.344;2023-08-01T12:35:59;3.90;;;1.53;;
59263;SDS011;45030;42.720;23.344;2023-08-01T12:38:25;2.83;;;1.52;;
59263;SDS011;45030;42.720;23.344;2023-08-01T12:40:51;2.42;;;1.30;;
59263;SDS011;45030;42.720;23.344;2023-08-01T12:43:16;2.97;;;1.30;;
59263;SDS011;45030;42.720;23.344;2023-08-01T12:45:42;2.90;;;1.25;;
59263;SDS011;45030;42.720;23.344;2023-08-01T12:48:08;2.83;;;1.40;;
59263;SDS011;45030;42.720;23.344;2023-08-01T12:50:34;2.10;;;1.37;;
59263;SDS011;45030;42.720;23.344;2023-08-01T12:52:59;2.63;;;1.60;;
59263;SDS011;45030;42.720;23.344;2023-08-01T12:55:24;2.60;;;1.63;;
59263;SDS011;45030;42.720;23.344;2023-08-01T12:57:50;3.83;;;1.67;;
59263;SDS011;45030;42.720;23.344;2023-08-01T13:00:15;2.10;;;1.38;;
59263;SDS011;45030;42.720;23.344;2023-08-01T13:02:40;3.25;;;2.22;;
59263;SDS011;45030;42.720;23.344;2023-08-01T13:05:06;3.60;;;1.47;;
59263;SDS011;45030;42.720;23.344;2023-08-01T13:07:31;3.25;;;1.98;;
59263;SDS011;45030;42.720;23.344;2023-08-01T13:09:57;3.70;;;1.65;;
59263;SDS011;45030;42.720;23.344;2023-08-01T13:12:23;2.83;;;1.52;;
59263;SDS011;45030;42.720;23.344;2023-08-01T13:14:48;3.37;;;1.97;;
59263;SDS011;45030;42.720;23.344;2023-08-01T13:17:13;2.47;;;1.88;;
59263;SDS011;45030;42.720;23.344;2023-08-01T13:19:39;3.10;;;1.83;;
59263;SDS011;45030;42.720;23.344;2023-08-01T13:22:04;2.73;;;1.63;;
59263;SDS011;45030;42.720;23.344;2023-08-01T13:24:29;3.50;;;2.03;;
59263;SDS011;45030;42.720;23.344;2023-08-01T13:26:54;3.23;;;2.10;;
59263;SDS011;45030;42.720;23.344;2023-08-01T13:29:20;2.93;;;1.80;;
59263;SDS011;45030;42.720;23.344;2023-08-01T13:31:45;4.23;;;1.80;;
59263;SDS011;45030;42.720;23.344;2023-08-01T13:34:10;2.20;;;1.70;;
59263;SDS011;45030;42.720;23.344;2023-08-01T13:36:35;2.40;;;1.70;;
59263;SDS011;45030;42.720;23.344;2023-08-01T13:39:01;2.38;;;1.30;;
59263;SDS011;45030;42.720;23.344;2023-08-01T13:41:26;3.97;;;1.92;;
59263;SDS011;45030;42.720;23.344;2023-08-01T13:43:52;3.83;;;1.60;;
59263;SDS011;45030;42.720;23.344;2023-08-01T13:46:17;2.13;;;1.50;;
59263;SDS011;45030;42.720;23.344;2023-08-01T13:48:43;2.15;;;1.50;;
59263;SDS011;45030;42.720;23.344;2023-08-01T13:51:09;2.05;;;1.50;;
59263;SDS011;45030;42.720;23.344;2023-08-01T13:53:35;2.72;;;1.70;;
59263;SDS011;45030;42.720;23.344;2023-08-01T13:56:04;2.22;;;1.60;;
59263;SDS011;45030;42.720;23.344;2023-08-01T13:58:29;2.85;;;1.77;;
59263;SDS011;45030;42.720;23.344;2023-08-01T14:00:54;3.70;;;1.80;;
59263;SDS011;45030;42.720;23.344;2023-08-01T14:03:19;2.83;;;1.53;;
59263;SDS011;45030;42.720;23.344;2023-08-01T14:05:45;3.60;;;1.60;;
59263;SDS011;45030;42.720;23.344;2023-08-01T14:08:10;2.53;;;1.90;;
59263;SDS011;45030;42.720;23.344;2023-08-01T14:10:35;3.03;;;1.80;;
59263;SDS011;45030;42.720;23.344;2023-08-01T14:13:00;3.03;;;1.53;;
59263;SDS011;45030;42.720;23.344;2023-08-01T14:15:26;4.50;;;1.70;;
59263;SDS011;45030;42.720;23.344;2023-08-01T14:17:51;4.13;;;1.80;;
59263;SDS011;45030;42.720;23.344;2023-08-01T14:20:17;4.63;;;1.70;;
59263;SDS011;45030;42.720;23.344;2023-08-01T14:22:43;4.00;;;1.40;;
59263;SDS011;45030;42.720;23.344;2023-08-01T14:25:08;1.70;;;1.27;;
59263;SDS011;45030;42.720;23.344;2023-08-01T14:27:34;2.83;;;1.50;;
59263;SDS011;45030;42.720;23.344;2023-08-01T14:29:59;2.15;;;1.40;;
59263;SDS011;45030;42.720;23.344;2023-08-01T14:32:25;2.83;;;1.70;;